Time;durP1;ratioP1;P1;durP2;ratioP2;P2;SDS_P1;SDS_P2;PMS_P1;PMS_P2;Temp;Humidity;BMP_temperature;BMP_pressure;BME280_temperature;BME280_humidity;BME280_pressure;Samples;Min_cycle;Max_cycle;Signal;HPM_P1;HPM_P2
2022/08/24 00:02:39;;;;;;;2.60;2.40;;;20.60;29.90;;;;;;10551451;28;20223;-76
2022/08/24 00:07:42;;;;;;;2.33;2.13;;;20.50;30.10;;;;;;10545610;28;20222;-76
2022/08/24 00:12:46;;;;;;;2.03;1.93;;;20.50;30.00;;;;;;10551365;28;20215;-77
2022/08/24 00:17:50;;;;;;;2.20;2.10;;;20.40;30.00;;;;;;10550261;28;20219;-76
2022/08/24 00:22:54;;;;;;;2.00;1.90;;;20.50;30.50;;;;;;10559048;28;20225;-76
2022/08/24 00:27:57;;;;;;;2.20;2.10;;;20.40;30.00;;;;;;10547019;28;20227;-76
2022/08/24 00:33:02;;;;;;;2.20;2.00;;;20.40;30.20;;;;;;10549357;28;20215;-76
2022/08/24 00:38:05;;;;;;;2.00;1.90;;;20.40;30.90;;;;;;10542215;28;20227;-76
2022/08/24 00:43:10;;;;;;;2.40;2.20;;;20.40;30.20;;;;;;10539623;28;20231;-76
2022/08/24 00:48:20;;;;;;;2.20;2.10;;;20.40;30.60;;;;;;10546106;28;20232;-76
2022/08/24 00:53:26;;;;;;;2.27;2.07;;;20.40;31.70;;;;;;10543007;28;20262;-76
2022/08/24 00:58:34;;;;;;;2.17;2.07;;;20.30;31.00;;;;;;10540211;28;20226;-76
2022/08/24 01:03:40;;;;;;;2.03;1.93;;;20.30;31.40;;;;;;10541952;28;20714;-76
2022/08/24 01:08:44;;;;;;;2.27;2.17;;;20.10;31.20;;;;;;10545620;28;20860;-76
2022/08/24 01:13:50;;;;;;;2.10;2.00;;;20.10;30.80;;;;;;10542434;28;20307;-76
2022/08/24 01:18:55;;;;;;;1.97;1.80;;;20.00;31.40;;;;;;10538445;28;20598;-76
2022/08/24 01:24:02;;;;;;;2.03;1.93;;;19.90;31.30;;;;;;10551713;28;20226;-76
2022/08/24 01:29:11;;;;;;;2.40;2.20;;;19.80;31.70;;;;;;10552072;28;20216;-76
2022/08/24 01:34:14;;;;;;;3.03;2.00;;;19.70;32.00;;;;;;10548299;28;20273;-76
2022/08/24 01:39:24;;;;;;;2.23;2.13;;;19.70;31.30;;;;;;10547363;28;20219;-76
2022/08/24 01:44:29;;;;;;;2.17;1.93;;;19.60;32.50;;;;;;10547703;28;20238;-76
2022/08/24 01:49:36;;;;;;;2.37;2.23;;;19.60;31.80;;;;;;10552242;28;20234;-76
2022/08/24 01:54:41;;;;;;;2.57;2.37;;;19.50;32.10;;;;;;10546632;28;20233;-76
2022/08/24 01:59:45;;;;;;;2.10;2.00;;;19.50;32.20;;;;;;10545656;28;20234;-76
2022/08/24 02:04:48;;;;;;;2.30;2.00;;;19.40;31.70;;;;;;10546781;28;20933;-76
2022/08/24 02:09:53;;;;;;;2.00;1.90;;;19.30;31.70;;;;;;10550866;28;20230;-76
2022/08/24 02:14:56;;;;;;;2.23;2.13;;;19.30;32.40;;;;;;10549512;28;20224;-76
2022/08/24 02:19:59;;;;;;;2.20;2.10;;;19.20;32.10;;;;;;10545716;28;20231;-76
2022/08/24 02:25:04;;;;;;;2.30;2.10;;;19.20;32.20;;;;;;10549596;28;20238;-76
2022/08/24 02:30:11;;;;;;;2.20;2.10;;;19.10;32.70;;;;;;10546471;28;20223;-76
2022/08/24 02:35:17;;;;;;;2.30;2.20;;;19.10;32.50;;;;;;10547861;28;20246;-76
2022/08/24 02:40:23;;;;;;;2.13;1.97;;;19.10;32.40;;;;;;10550014;28;20230;-76
2022/08/24 02:45:26;;;;;;;1.90;1.80;;;19.10;33.00;;;;;;10543580;28;20641;-77
2022/08/24 02:50:29;;;;;;;1.97;1.87;;;19.10;32.40;;;;;;10550256;28;20230;-77
2022/08/24 02:55:34;;;;;;;1.83;1.73;;;19.10;32.50;;;;;;10543523;28;20240;-76
2022/08/24 03:00:38;;;;;;;2.07;1.97;;;19.00;32.70;;;;;;10543811;28;20230;-77
2022/08/24 03:05:42;;;;;;;2.17;1.97;;;19.00;32.70;;;;;;10551643;28;20222;-77
2022/08/24 03:10:47;;;;;;;2.43;1.70;;;18.90;32.50;;;;;;10552409;28;20223;-77
2022/08/24 03:15:50;;;;;;;2.40;2.30;;;18.80;32.90;;;;;;10547583;28;20226;-77
2022/08/24 03:20:54;;;;;;;2.20;1.97;;;18.80;32.80;;;;;;10545880;28;20224;-77
2022/08/24 03:26:00;;;;;;;2.70;2.27;;;18.80;33.00;;;;;;10542349;28;20310;-77
2022/08/24 03:31:04;;;;;;;2.33;2.13;;;18.70;33.60;;;;;;10550036;28;20695;-77
2022/08/24 03:36:08;;;;;;;2.23;2.13;;;18.70;33.10;;;;;;10539726;28;20219;-77
2022/08/24 03:41:17;;;;;;;2.07;1.97;;;18.70;33.20;;;;;;10552285;28;20285;-77
2022/08/24 03:46:24;;;;;;;2.10;1.97;;;18.70;33.50;;;;;;10543854;28;20915;-76
2022/08/24 03:51:29;;;;;;;1.93;1.83;;;18.70;33.80;;;;;;10543757;28;20231;-77
2022/08/24 03:56:34;;;;;;;2.70;2.50;;;18.60;33.20;;;;;;10540608;28;20229;-77
2022/08/24 04:01:38;;;;;;;2.20;2.10;;;18.60;33.60;;;;;;10543058;28;20233;-77
2022/08/24 04:06:43;;;;;;;2.10;1.97;;;18.50;33.20;;;;;;10546263;28;20251;-77
2022/08/24 04:11:48;;;;;;;2.33;2.20;;;18.40;33.20;;;;;;10546103;28;20243;-77
2022/08/24 04:16:54;;;;;;;2.10;2.00;;;18.40;33.70;;;;;;10544213;28;20250;-77
2022/08/24 04:21:59;;;;;;;2.30;2.20;;;18.40;33.40;;;;;;10544949;28;20224;-77
2022/08/24 04:27:04;;;;;;;2.40;2.20;;;18.30;33.50;;;;;;10552122;28;20219;-77
2022/08/24 04:32:08;;;;;;;2.47;2.20;;;18.30;34.20;;;;;;10547693;28;20265;-77
2022/08/24 04:37:12;;;;;;;2.40;2.20;;;18.40;33.90;;;;;;10545588;28;20220;-77
2022/08/24 04:42:18;;;;;;;2.27;2.17;;;18.30;33.90;;;;;;10542317;28;20226;-77
2022/08/24 04:47:21;;;;;;;2.60;2.10;;;18.30;34.50;;;;;;10544385;28;20242;-77
2022/08/24 04:52:25;;;;;;;1.90;1.80;;;18.30;34.00;;;;;;10544105;28;20778;-77
2022/08/24 04:57:29;;;;;;;3.03;2.60;;;18.30;33.90;;;;;;10551409;28;20226;-77
2022/08/24 05:02:33;;;;;;;2.77;2.23;;;18.30;35.00;;;;;;10554832;28;20360;-77
2022/08/24 05:07:43;;;;;;;2.70;2.50;;;18.30;34.30;;;;;;10548190;28;20615;-77
2022/08/24 05:12:48;;;;;;;2.50;2.27;;;18.20;34.80;;;;;;10552504;27;20226;-77
2022/08/24 05:17:51;;;;;;;2.00;1.90;;;18.30;35.00;;;;;;10555151;28;20233;-77
2022/08/24 05:22:55;;;;;;;2.30;2.10;;;18.20;34.80;;;;;;10555794;28;20258;-77
2022/08/24 05:28:04;;;;;;;2.10;2.00;;;18.20;34.90;;;;;;10549544;28;20224;-77
2022/08/24 05:33:07;;;;;;;4.03;2.30;;;18.30;35.00;;;;;;10551435;28;20227;-77
2022/08/24 05:38:10;;;;;;;2.70;2.50;;;18.30;35.00;;;;;;10553304;28;20223;-77
2022/08/24 05:43:15;;;;;;;3.00;2.80;;;18.30;35.10;;;;;;10556837;28;20269;-77
2022/08/24 05:48:18;;;;;;;3.40;3.20;;;18.40;36.30;;;;;;10551994;28;20226;-77
2022/08/24 05:53:22;;;;;;;2.93;2.80;;;18.40;35.90;;;;;;10552513;28;21372;-77
2022/08/24 05:58:26;;;;;;;3.40;3.20;;;18.40;35.90;;;;;;10552715;27;20233;-77
2022/08/24 06:03:33;;;;;;;3.87;3.47;;;18.50;37.00;;;;;;10556080;28;20302;-77
2022/08/24 06:08:38;;;;;;;4.80;3.50;;;18.60;36.80;;;;;;10548577;28;20219;-77
2022/08/24 06:13:45;;;;;;;3.47;3.17;;;18.60;37.00;;;;;;10560261;28;20941;-77
2022/08/24 06:18:54;;;;;;;4.03;3.73;;;18.70;38.00;;;;;;10554112;28;20347;-77
2022/08/24 06:23:58;;;;;;;4.30;3.50;;;18.80;38.00;;;;;;10545929;28;20219;-77
2022/08/24 06:29:03;;;;;;;4.23;3.93;;;18.90;38.20;;;;;;10548881;28;20219;-77
2022/08/24 06:34:07;;;;;;;4.63;4.00;;;19.00;39.10;;;;;;10548205;28;20227;-77
2022/08/24 06:39:10;;;;;;;4.33;3.93;;;19.10;38.30;;;;;;10550047;28;20227;-77
2022/08/24 06:44:15;;;;;;;3.87;3.60;;;19.20;38.80;;;;;;10542127;28;22112;-77
2022/08/24 06:49:18;;;;;;;3.77;3.47;;;19.30;39.60;;;;;;10556143;28;20227;-77
2022/08/24 06:54:21;;;;;;;3.70;3.50;;;19.50;39.20;;;;;;10551317;28;21641;-77
2022/08/24 06:59:26;;;;;;;3.20;3.00;;;19.60;39.40;;;;;;10552859;28;20698;-77
2022/08/24 07:04:30;;;;;;;3.83;3.53;;;19.80;40.80;;;;;;10550436;28;20233;-77
2022/08/24 07:09:33;;;;;;;3.90;3.60;;;19.90;40.10;;;;;;10550469;28;20244;-77
2022/08/24 07:14:38;;;;;;;3.33;3.13;;;20.10;40.40;;;;;;10555971;28;20219;-77
2022/08/24 07:19:41;;;;;;;3.40;3.20;;;20.20;42.10;;;;;;10542267;28;20237;-77
2022/08/24 07:24:45;;;;;;;3.00;2.80;;;20.40;40.60;;;;;;10555106;28;20222;-77
2022/08/24 07:29:54;;;;;;;2.40;2.30;;;20.60;40.70;;;;;;10548876;28;20220;-77
2022/08/24 07:42:16;;;;;;;2.60;2.40;;;21.00;42.10;;;;;;10535557;28;20219;-77
2022/08/24 07:47:30;;;;;;;3.33;2.70;;;21.30;41.50;;;;;;10539005;28;20269;-77
2022/08/24 07:52:51;;;;;;;2.47;2.27;;;21.60;41.10;;;;;;10542961;28;20297;-77
2022/08/24 07:57:54;;;;;;;2.70;2.50;;;21.90;40.50;;;;;;10542489;28;20601;-77
2022/08/24 08:03:01;;;;;;;2.90;2.70;;;22.20;40.30;;;;;;10544226;28;20234;-77
2022/08/24 08:08:04;;;;;;;2.73;2.60;;;22.40;40.70;;;;;;10539527;28;20230;-77
2022/08/24 08:13:08;;;;;;;2.90;2.70;;;22.80;40.00;;;;;;10545420;28;20231;-77
2022/08/24 08:18:15;;;;;;;2.90;2.70;;;23.10;39.30;;;;;;10546230;28;20625;-77
2022/08/24 08:28:41;;;;;;;2.67;2.57;;;23.60;39.70;;;;;;10544545;28;20215;-77
2022/08/24 08:33:46;;;;;;;2.73;2.63;;;23.80;39.00;;;;;;10551471;28;20226;-77
2022/08/24 08:38:50;;;;;;;2.73;2.50;;;24.10;38.90;;;;;;10548797;28;20231;-77
2022/08/24 08:44:00;;;;;;;2.90;2.70;;;24.30;38.60;;;;;;10556567;28;20226;-77
2022/08/24 08:49:36;;;;;;;2.70;2.60;;;24.60;38.30;;;;;;10551684;28;20225;-77
2022/08/24 08:54:54;;;;;;;2.90;2.70;;;24.80;38.30;;;;;;10549855;28;20215;-77
2022/08/24 09:00:10;;;;;;;2.50;2.40;;;25.10;37.60;;;;;;10550274;28;20227;-77
2022/08/24 09:05:56;;;;;;;2.50;2.40;;;25.30;37.70;;;;;;10543978;28;20569;-77
2022/08/24 09:11:07;;;;;;;2.60;2.40;;;25.50;37.10;;;;;;10550280;28;20238;-77
2022/08/24 09:16:37;;;;;;;2.40;2.20;;;25.80;36.50;;;;;;10551577;28;20313;-77
2022/08/24 09:21:58;;;;;;;2.33;2.23;;;26.10;35.90;;;;;;10552444;28;20223;-77
2022/08/24 09:27:11;;;;;;;2.53;2.33;;;26.30;35.80;;;;;;10545975;28;20323;-77
2022/08/24 09:32:34;;;;;;;2.50;2.40;;;26.50;35.30;;;;;;10553761;28;20234;-78
2022/08/24 09:37:57;;;;;;;2.30;2.20;;;26.70;34.80;;;;;;10542118;27;20226;-77
2022/08/24 09:43:34;;;;;;;2.50;2.37;;;26.90;34.10;;;;;;10547688;28;20227;-77
2022/08/24 09:49:31;;;;;;;2.40;2.30;;;26.90;34.20;;;;;;10548021;28;20218;-77
2022/08/24 09:55:06;;;;;;;2.47;2.27;;;27.00;34.30;;;;;;10422337;28;20767;-77
2022/08/24 10:00:17;;;;;;;2.50;2.40;;;27.20;33.50;;;;;;10545179;28;20219;-77
2022/08/24 10:05:30;;;;;;;2.50;2.30;;;27.30;33.30;;;;;;10544599;28;20727;-77
2022/08/24 10:10:51;;;;;;;3.20;2.60;;;27.30;32.90;;;;;;10548336;28;20222;-77
2022/08/24 10:16:13;;;;;;;2.70;2.50;;;27.50;33.00;;;;;;10545192;28;20613;-77
2022/08/24 10:21:31;;;;;;;2.73;2.60;;;27.50;32.60;;;;;;10545117;28;20225;-76
2022/08/24 10:27:00;;;;;;;2.53;2.33;;;27.60;32.40;;;;;;10545776;28;20222;-76
2022/08/24 10:32:18;;;;;;;2.63;2.53;;;27.60;32.20;;;;;;10545346;28;20227;-76
2022/08/24 10:44:01;;;;;;;2.60;2.40;;;27.70;32.30;;;;;;10455797;28;20306;-76
2022/08/24 10:49:33;;;;;;;2.13;2.03;;;27.80;31.90;;;;;;10537840;28;20227;-76
2022/08/24 10:54:37;;;;;;;2.30;2.20;;;27.90;31.60;;;;;;10542520;28;20961;-76
2022/08/24 10:59:52;;;;;;;3.00;2.40;;;28.00;31.50;;;;;;10549490;28;20235;-76
2022/08/24 11:04:57;;;;;;;2.53;2.43;;;28.00;30.70;;;;;;10544436;28;20242;-76
2022/08/24 11:10:05;;;;;;;2.10;2.00;;;28.10;31.30;;;;;;10544916;28;20249;-76
2022/08/24 11:15:22;;;;;;;2.27;2.17;;;28.10;30.40;;;;;;10544878;28;20219;-76
2022/08/24 11:20:28;;;;;;;2.00;1.90;;;28.30;30.40;;;;;;10541215;28;20755;-76
2022/08/24 11:25:34;;;;;;;2.20;2.10;;;28.40;30.50;;;;;;10543929;28;20227;-76
2022/08/24 11:30:41;;;;;;;2.03;1.93;;;28.40;30.50;;;;;;10543241;28;20726;-76
2022/08/24 11:35:44;;;;;;;2.10;2.00;;;28.50;30.50;;;;;;10542712;28;20219;-77
2022/08/24 11:40:51;;;;;;;2.00;1.90;;;28.50;30.50;;;;;;10537595;28;20223;-76
2022/08/24 11:46:07;;;;;;;1.90;1.80;;;28.70;29.80;;;;;;10540190;28;20222;-76
2022/08/24 11:51:16;;;;;;;2.10;2.00;;;28.80;29.80;;;;;;10540617;28;20230;-76
2022/08/24 11:56:26;;;;;;;2.10;2.00;;;28.90;29.40;;;;;;10542332;28;20226;-76
2022/08/24 12:01:38;;;;;;;2.30;2.20;;;28.90;29.40;;;;;;10538808;28;20232;-76
2022/08/24 12:06:58;;;;;;;2.00;1.90;;;29.00;29.00;;;;;;10539522;28;20246;-76
2022/08/24 12:12:13;;;;;;;1.63;1.53;;;29.00;29.30;;;;;;10540620;28;20233;-76
2022/08/24 12:17:23;;;;;;;2.13;2.03;;;29.10;29.20;;;;;;10544497;28;20219;-76
2022/08/24 12:22:28;;;;;;;2.07;1.97;;;29.20;28.80;;;;;;10540361;28;20231;-76
2022/08/24 12:27:35;;;;;;;2.33;2.10;;;29.30;29.10;;;;;;10544141;28;20233;-76
2022/08/24 12:32:44;;;;;;;2.13;2.03;;;29.30;28.80;;;;;;10542401;28;20223;-76
2022/08/24 12:37:50;;;;;;;2.10;2.00;;;29.40;28.50;;;;;;10540298;28;20227;-76
2022/08/24 12:42:58;;;;;;;2.27;2.17;;;29.40;28.70;;;;;;10540872;28;20273;-76
2022/08/24 12:48:10;;;;;;;2.27;2.07;;;29.30;28.40;;;;;;10543586;28;20226;-76
2022/08/24 12:53:49;;;;;;;2.20;2.10;;;29.30;28.20;;;;;;10542072;28;20223;-76
2022/08/24 12:59:01;;;;;;;2.20;2.10;;;29.20;28.40;;;;;;10545721;28;20231;-76
2022/08/24 13:04:12;;;;;;;2.30;2.20;;;29.00;28.20;;;;;;10541680;28;20256;-76
2022/08/24 13:09:27;;;;;;;2.37;2.27;;;28.90;28.50;;;;;;10543775;28;20223;-76
2022/08/24 13:14:30;;;;;;;2.20;2.10;;;28.70;28.70;;;;;;10539579;28;20314;-76
2022/08/24 13:19:38;;;;;;;2.10;2.00;;;28.70;29.10;;;;;;10549245;28;20227;-76
2022/08/24 13:24:44;;;;;;;2.10;2.00;;;28.70;28.60;;;;;;10551207;28;20594;-76
2022/08/24 13:29:53;;;;;;;1.97;1.87;;;28.70;28.60;;;;;;10550048;28;20230;-76
2022/08/24 13:34:59;;;;;;;2.10;2.00;;;28.80;28.50;;;;;;10544253;28;20314;-76
2022/08/24 13:40:17;;;;;;;2.23;2.10;;;28.90;28.60;;;;;;10549298;28;20231;-76
2022/08/24 13:45:34;;;;;;;2.03;1.93;;;29.00;28.40;;;;;;10549570;28;20314;-76
2022/08/24 13:50:48;;;;;;;2.07;1.97;;;29.00;28.40;;;;;;10545131;28;20222;-76
2022/08/24 13:55:53;;;;;;;2.10;2.00;;;29.00;27.90;;;;;;10539951;28;20219;-76
2022/08/24 14:01:03;;;;;;;2.00;1.90;;;29.00;28.50;;;;;;10541740;28;20356;-76
2022/08/24 14:06:27;;;;;;;1.97;1.87;;;29.00;28.20;;;;;;10545893;28;20222;-76
2022/08/24 14:11:46;;;;;;;1.70;1.60;;;29.10;27.80;;;;;;10547553;28;20314;-76
2022/08/24 14:22:33;;;;;;;2.10;2.00;;;29.30;27.30;;;;;;10542552;28;20235;-76
2022/08/24 14:27:41;;;;;;;2.87;2.10;;;29.40;27.30;;;;;;10544295;28;20716;-76
2022/08/24 14:33:03;;;;;;;2.00;1.90;;;29.40;27.50;;;;;;10543374;28;20223;-76
2022/08/24 14:38:25;;;;;;;1.80;1.70;;;29.50;27.50;;;;;;10545972;28;20219;-76
2022/08/24 14:43:34;;;;;;;2.00;1.90;;;29.50;26.40;;;;;;10541256;28;20717;-76
2022/08/24 14:48:47;;;;;;;2.30;2.07;;;29.50;26.90;;;;;;10546405;28;20226;-76
2022/08/24 14:54:00;;;;;;;2.00;1.90;;;29.50;27.00;;;;;;10546477;28;20227;-76
2022/08/24 14:59:08;;;;;;;2.33;2.23;;;29.40;27.00;;;;;;10549380;28;20858;-76
2022/08/24 15:04:43;;;;;;;2.67;2.00;;;29.40;27.00;;;;;;10546349;28;20773;-76
2022/08/24 15:09:49;;;;;;;2.00;1.90;;;29.30;27.10;;;;;;10544835;28;20223;-76
2022/08/24 15:14:54;;;;;;;2.70;1.80;;;29.20;27.10;;;;;;10543228;28;20218;-76
2022/08/24 15:20:06;;;;;;;2.40;2.20;;;29.30;27.30;;;;;;10548486;28;20232;-76
2022/08/24 15:25:18;;;;;;;1.90;1.80;;;29.30;27.00;;;;;;10543507;28;20545;-76
2022/08/24 15:30:26;;;;;;;1.97;1.87;;;29.30;26.90;;;;;;10548606;28;20238;-76
2022/08/24 15:35:32;;;;;;;1.90;1.80;;;29.40;27.00;;;;;;10541152;28;20227;-76
2022/08/24 15:40:36;;;;;;;2.00;1.90;;;29.40;26.80;;;;;;10540235;28;20234;-76
2022/08/24 15:45:46;;;;;;;1.90;1.80;;;29.50;27.10;;;;;;10543443;28;20949;-76
2022/08/24 15:50:49;;;;;;;1.60;1.60;;;29.50;26.60;;;;;;10540911;28;20309;-76
2022/08/24 15:55:54;;;;;;;2.10;2.00;;;29.60;27.00;;;;;;10544231;28;20219;-76
2022/08/24 16:06:35;;;;;;;1.90;1.80;;;29.60;26.90;;;;;;10543379;28;20230;-76
2022/08/24 16:11:41;;;;;;;2.20;2.00;;;29.60;26.40;;;;;;10543406;28;20226;-76
2022/08/24 16:16:45;;;;;;;1.90;1.80;;;29.60;26.50;;;;;;10543868;28;20257;-75
2022/08/24 16:21:56;;;;;;;2.00;1.90;;;29.70;26.70;;;;;;10543580;28;20298;-76
2022/08/24 16:27:06;;;;;;;2.23;2.03;;;29.70;26.40;;;;;;10542080;28;20250;-76
2022/08/24 16:32:52;;;;;;;2.00;1.90;;;29.70;26.10;;;;;;10537293;28;20225;-76
2022/08/24 16:37:56;;;;;;;2.23;2.13;;;29.80;26.30;;;;;;10542022;28;20214;-75
2022/08/24 16:43:01;;;;;;;3.17;2.20;;;29.80;26.40;;;;;;10531302;28;20243;-77
2022/08/24 16:48:05;;;;;;;2.90;2.70;;;29.80;26.40;;;;;;10528806;28;20229;-77
2022/08/24 16:53:09;;;;;;;3.03;2.83;;;29.80;26.50;;;;;;10536926;28;20235;-77
2022/08/24 16:58:13;;;;;;;4.63;4.17;;;29.70;26.60;;;;;;10536795;28;20224;-77
2022/08/24 17:03:16;;;;;;;10.00;9.20;;;29.60;26.70;;;;;;10536549;28;20235;-76
2022/08/24 17:08:20;;;;;;;5.70;5.20;;;29.50;26.80;;;;;;10536621;28;20228;-77
2022/08/24 17:13:25;;;;;;;4.50;4.20;;;29.50;26.90;;;;;;10535787;28;20696;-76
2022/08/24 17:18:48;;;;;;;3.60;3.40;;;29.50;26.80;;;;;;10535891;28;20227;-77
2022/08/24 17:23:51;;;;;;;2.90;2.70;;;29.40;27.00;;;;;;10535615;28;20731;-76
2022/08/24 17:28:57;;;;;;;5.03;3.10;;;29.30;27.10;;;;;;10536151;28;20223;-77
2022/08/24 17:34:00;;;;;;;3.40;3.10;;;29.30;27.20;;;;;;10535705;28;20588;-76
2022/08/24 17:39:05;;;;;;;3.20;2.90;;;29.20;27.20;;;;;;10535320;28;20333;-77
2022/08/24 17:44:12;;;;;;;3.20;2.90;;;29.10;27.40;;;;;;10535340;28;20228;-77
2022/08/24 17:49:17;;;;;;;3.00;2.77;;;29.00;27.50;;;;;;10534666;28;20314;-77
2022/08/24 17:54:20;;;;;;;3.43;2.70;;;28.80;27.50;;;;;;10534378;28;20280;-77
2022/08/24 17:59:30;;;;;;;2.90;2.70;;;28.70;27.60;;;;;;10534269;28;20255;-77
2022/08/24 18:04:35;;;;;;;2.87;2.77;;;28.60;28.00;;;;;;10533687;28;20250;-77
2022/08/24 18:09:44;;;;;;;3.07;2.87;;;28.50;28.00;;;;;;10533602;28;20239;-76
2022/08/24 18:14:50;;;;;;;3.17;2.97;;;28.40;28.30;;;;;;10533775;28;20232;-76
2022/08/24 18:19:54;;;;;;;2.93;2.73;;;28.30;28.50;;;;;;10533589;28;20224;-77
2022/08/24 18:24:57;;;;;;;2.80;2.60;;;28.20;28.50;;;;;;10533459;28;20233;-77
2022/08/24 18:30:07;;;;;;;3.10;2.90;;;28.20;29.20;;;;;;10533460;28;20234;-78
2022/08/24 18:35:11;;;;;;;3.80;2.90;;;28.10;29.30;;;;;;10533312;28;20258;-77
2022/08/24 18:40:16;;;;;;;3.20;3.00;;;28.00;28.80;;;;;;10532994;28;20602;-77
2022/08/24 18:45:26;;;;;;;2.90;2.70;;;27.80;29.70;;;;;;10532494;28;20255;-79
2022/08/24 18:50:32;;;;;;;3.33;3.13;;;27.60;29.20;;;;;;10532458;28;20323;-77
2022/08/24 18:55:37;;;;;;;4.03;3.10;;;27.50;29.20;;;;;;10532198;28;20231;-77
2022/08/24 19:00:42;;;;;;;3.83;3.60;;;27.40;29.40;;;;;;10531891;28;20754;-76
2022/08/24 19:05:46;;;;;;;3.20;3.00;;;27.30;29.90;;;;;;10532027;28;20239;-77
2022/08/24 19:10:49;;;;;;;3.17;2.97;;;27.30;29.90;;;;;;10531512;28;20231;-77
2022/08/24 19:15:54;;;;;;;3.40;3.20;;;27.20;29.80;;;;;;10530887;28;20231;-79
2022/08/24 19:20:58;;;;;;;3.90;3.50;;;27.10;29.80;;;;;;10531518;28;20234;-77
2022/08/24 19:26:02;;;;;;;3.53;3.23;;;27.00;29.80;;;;;;10532141;28;20234;-76
2022/08/24 19:31:11;;;;;;;3.37;3.17;;;26.90;29.70;;;;;;10531615;28;20239;-76
2022/08/24 19:36:15;;;;;;;3.33;3.13;;;26.90;29.90;;;;;;10532049;28;20228;-77
2022/08/24 19:41:18;;;;;;;3.83;3.53;;;26.70;29.60;;;;;;10531337;28;20243;-77
2022/08/24 19:46:23;;;;;;;3.87;3.57;;;26.70;30.10;;;;;;10531315;28;20238;-77
2022/08/24 19:51:27;;;;;;;4.17;3.77;;;26.60;30.50;;;;;;10537819;28;20239;-77
2022/08/24 19:56:30;;;;;;;4.17;3.77;;;26.40;30.40;;;;;;10573371;28;20270;-76
2022/08/24 20:01:36;;;;;;;4.10;3.77;;;26.30;30.40;;;;;;10573070;28;20230;-76
2022/08/24 20:06:40;;;;;;;4.20;3.90;;;26.10;31.10;;;;;;10573715;28;20225;-77
2022/08/24 20:11:43;;;;;;;4.17;3.77;;;26.00;30.80;;;;;;10573003;28;20707;-76
2022/08/24 20:16:47;;;;;;;4.63;4.23;;;25.80;30.90;;;;;;10573258;28;20230;-77
2022/08/24 20:21:51;;;;;;;4.80;4.40;;;25.70;31.60;;;;;;10572896;28;20369;-76
2022/08/24 20:26:54;;;;;;;4.27;3.93;;;25.60;31.40;;;;;;10579780;28;20230;-76
2022/08/24 20:32:01;;;;;;;5.10;4.70;;;25.50;31.70;;;;;;10582060;28;20235;-76
2022/08/24 20:37:04;;;;;;;5.43;4.87;;;25.40;32.30;;;;;;10581678;28;20226;-77
2022/08/24 20:42:08;;;;;;;7.70;4.63;;;25.40;32.00;;;;;;10581308;28;20234;-75
2022/08/24 20:47:20;;;;;;;4.30;3.90;;;25.30;32.00;;;;;;10581147;28;20967;-77
2022/08/24 20:52:25;;;;;;;4.63;4.23;;;25.20;32.50;;;;;;10581099;28;20265;-76
2022/08/24 21:03:51;;;;;;;4.43;4.03;;;25.00;32.50;;;;;;10580572;28;20234;-76
2022/08/24 21:08:54;;;;;;;4.60;4.10;;;24.90;32.90;;;;;;10580655;28;20283;-77
2022/08/24 21:13:58;;;;;;;4.90;4.50;;;24.80;32.40;;;;;;10580086;28;20251;-77
2022/08/24 21:19:02;;;;;;;3.87;3.63;;;24.60;32.60;;;;;;10579651;28;20238;-77
2022/08/24 21:24:06;;;;;;;4.47;4.17;;;24.50;33.20;;;;;;10580137;28;20227;-79
2022/08/24 21:29:11;;;;;;;5.03;4.00;;;24.50;32.90;;;;;;10581403;28;20230;-77
2022/08/24 21:39:36;;;;;;;4.37;4.07;;;24.30;33.80;;;;;;10578713;28;20226;-77
2022/08/24 21:44:39;;;;;;;4.20;3.90;;;24.30;33.40;;;;;;10578962;28;20231;-77
2022/08/24 21:49:44;;;;;;;3.83;3.53;;;24.10;33.20;;;;;;10579716;28;20234;-79
2022/08/24 21:54:47;;;;;;;4.03;3.73;;;24.10;33.60;;;;;;10579412;28;20257;-76
2022/08/24 21:59:50;;;;;;;4.50;4.10;;;24.00;33.40;;;;;;10578621;28;20238;-76
2022/08/24 22:04:55;;;;;;;4.13;3.83;;;24.00;33.50;;;;;;10578256;28;20229;-76
2022/08/24 22:09:59;;;;;;;4.40;4.00;;;23.90;33.90;;;;;;10577603;28;20249;-76
2022/08/24 22:15:02;;;;;;;4.10;3.80;;;23.90;33.80;;;;;;10577379;28;20675;-76
2022/08/24 22:20:09;;;;;;;4.40;4.10;;;23.80;33.70;;;;;;10577485;28;20238;-76
2022/08/24 22:25:23;;;;;;;4.37;4.07;;;23.80;34.00;;;;;;10577089;28;20235;-77
2022/08/24 22:30:26;;;;;;;4.27;3.87;;;23.80;33.80;;;;;;10576936;28;20231;-79
2022/08/24 22:35:31;;;;;;;4.20;3.90;;;23.70;33.80;;;;;;10577546;28;20220;-77
2022/08/24 22:40:47;;;;;;;4.37;4.00;;;23.60;34.00;;;;;;10575751;28;20230;-77
2022/08/24 22:45:50;;;;;;;4.07;3.80;;;23.60;33.80;;;;;;10575717;28;20238;-76
2022/08/24 22:50:55;;;;;;;4.60;4.20;;;23.50;33.90;;;;;;10575461;28;20355;-76
2022/08/24 22:56:00;;;;;;;4.43;4.03;;;23.50;34.60;;;;;;10575546;28;20877;-76
2022/08/24 23:01:03;;;;;;;4.57;4.17;;;23.30;34.10;;;;;;10575038;28;20702;-76
2022/08/24 23:06:08;;;;;;;4.30;4.00;;;23.30;34.10;;;;;;10575520;28;20237;-78
2022/08/24 23:11:11;;;;;;;4.20;3.90;;;23.20;34.60;;;;;;10575763;28;20234;-76
2022/08/24 23:16:15;;;;;;;4.43;4.13;;;23.20;34.40;;;;;;10576181;28;20685;-78
2022/08/24 23:21:20;;;;;;;4.00;3.70;;;23.10;34.30;;;;;;10572838;28;20750;-78
2022/08/24 23:26:23;;;;;;;4.60;4.30;;;23.10;34.80;;;;;;10572495;28;20237;-76
2022/08/24 23:31:27;;;;;;;4.50;4.20;;;23.10;34.70;;;;;;10573900;28;20231;-79
2022/08/24 23:36:31;;;;;;;3.70;3.50;;;23.00;34.60;;;;;;10573679;28;20703;-75
2022/08/24 23:41:37;;;;;;;4.47;4.17;;;22.90;34.80;;;;;;10573128;28;20231;-79
2022/08/24 23:46:41;;;;;;;4.30;4.00;;;22.80;35.10;;;;;;10574260;28;20258;-79
2022/08/24 23:51:46;;;;;;;4.13;3.83;;;22.70;34.90;;;;;;10573043;28;20234;-77
2022/08/24 23:56:51;;;;;;;4.87;4.47;;;22.70;35.30;;;;;;10572651;28;20222;-77
